sensor_id;sensor_type;location;lat;lon;timestamp;P1;durP1;ratioP1;P2;durP2;ratioP2
22713;SDS011;11524;50.846;4.326;2023-04-24T00:00:34;2.42;;;1.35;;
22713;SDS011;11524;50.846;4.326;2023-04-24T00:03:01;1.63;;;1.33;;
22713;SDS011;11524;50.846;4.326;2023-04-24T00:05:28;2.10;;;1.30;;
22713;SDS011;11524;50.846;4.326;2023-04-24T00:07:54;1.65;;;1.33;;
22713;SDS011;11524;50.846;4.326;2023-04-24T00:10:20;1.20;;;1.10;;
22713;SDS011;11524;50.846;4.326;2023-04-24T00:12:46;3.08;;;1.25;;
22713;SDS011;11524;50.846;4.326;2023-04-24T00:15:12;2.72;;;1.55;;
22713;SDS011;11524;50.846;4.326;2023-04-24T00:17:38;2.17;;;1.60;;
22713;SDS011;11524;50.846;4.326;2023-04-24T00:20:04;2.22;;;1.23;;
22713;SDS011;11524;50.846;4.326;2023-04-24T00:22:32;2.58;;;1.52;;
22713;SDS011;11524;50.846;4.326;2023-04-24T00:24:57;1.48;;;1.25;;
22713;SDS011;11524;50.846;4.326;2023-04-24T00:27:23;3.28;;;2.03;;
22713;SDS011;11524;50.846;4.326;2023-04-24T00:29:49;2.50;;;1.40;;
22713;SDS011;11524;50.846;4.326;2023-04-24T00:32:14;2.97;;;1.38;;
22713;SDS011;11524;50.846;4.326;2023-04-24T00:34:40;1.20;;;1.05;;
22713;SDS011;11524;50.846;4.326;2023-04-24T00:37:06;1.85;;;1.50;;
22713;SDS011;11524;50.846;4.326;2023-04-24T00:39:32;1.60;;;1.27;;
22713;SDS011;11524;50.846;4.326;2023-04-24T00:41:58;3.03;;;1.73;;
22713;SDS011;11524;50.846;4.326;2023-04-24T00:44:24;3.00;;;1.40;;
22713;SDS011;11524;50.846;4.326;2023-04-24T00:46:49;3.13;;;1.52;;
22713;SDS011;11524;50.846;4.326;2023-04-24T00:49:19;2.30;;;1.52;;
22713;SDS011;11524;50.846;4.326;2023-04-24T00:51:45;2.90;;;1.70;;
22713;SDS011;11524;50.846;4.326;2023-04-24T00:54:15;2.45;;;1.50;;
22713;SDS011;11524;50.846;4.326;2023-04-24T00:56:41;2.50;;;1.70;;
22713;SDS011;11524;50.846;4.326;2023-04-24T00:59:07;3.45;;;2.10;;
22713;SDS011;11524;50.846;4.326;2023-04-24T01:01:33;3.08;;;1.85;;
22713;SDS011;11524;50.846;4.326;2023-04-24T01:04:00;3.33;;;1.92;;
22713;SDS011;11524;50.846;4.326;2023-04-24T01:06:27;2.47;;;2.00;;
22713;SDS011;11524;50.846;4.326;2023-04-24T01:08:54;4.78;;;2.53;;
22713;SDS011;11524;50.846;4.326;2023-04-24T01:11:20;3.38;;;2.30;;
22713;SDS011;11524;50.846;4.326;2023-04-24T01:13:47;2.38;;;1.63;;
22713;SDS011;11524;50.846;4.326;2023-04-24T01:16:14;2.90;;;2.03;;
22713;SDS011;11524;50.846;4.326;2023-04-24T01:18:40;3.80;;;1.90;;
22713;SDS011;11524;50.846;4.326;2023-04-24T01:21:06;4.50;;;2.58;;
22713;SDS011;11524;50.846;4.326;2023-04-24T01:23:33;4.03;;;2.15;;
22713;SDS011;11524;50.846;4.326;2023-04-24T01:25:59;4.22;;;2.13;;
22713;SDS011;11524;50.846;4.326;2023-04-24T01:28:25;3.83;;;2.10;;
22713;SDS011;11524;50.846;4.326;2023-04-24T01:30:51;4.05;;;2.50;;
22713;SDS011;11524;50.846;4.326;2023-04-24T01:33:18;4.93;;;2.42;;
22713;SDS011;11524;50.846;4.326;2023-04-24T01:35:46;4.43;;;2.65;;
22713;SDS011;11524;50.846;4.326;2023-04-24T01:38:13;3.33;;;2.10;;
22713;SDS011;11524;50.846;4.326;2023-04-24T01:40:39;8.40;;;2.50;;
22713;SDS011;11524;50.846;4.326;2023-04-24T01:43:05;3.95;;;2.00;;
22713;SDS011;11524;50.846;4.326;2023-04-24T01:45:31;2.85;;;2.00;;
22713;SDS011;11524;50.846;4.326;2023-04-24T01:47:56;2.95;;;1.80;;
22713;SDS011;11524;50.846;4.326;2023-04-24T01:50:22;3.28;;;1.98;;
22713;SDS011;11524;50.846;4.326;2023-04-24T01:52:48;3.83;;;2.08;;
22713;SDS011;11524;50.846;4.326;2023-04-24T01:55:13;2.50;;;1.92;;
22713;SDS011;11524;50.846;4.326;2023-04-24T01:57:39;3.95;;;2.20;;
22713;SDS011;11524;50.846;4.326;2023-04-24T02:00:05;3.92;;;2.30;;
22713;SDS011;11524;50.846;4.326;2023-04-24T02:02:37;3.95;;;2.67;;
22713;SDS011;11524;50.846;4.326;2023-04-24T02:05:05;3.30;;;2.17;;
22713;SDS011;11524;50.846;4.326;2023-04-24T02:07:32;4.88;;;2.05;;
22713;SDS011;11524;50.846;4.326;2023-04-24T02:09:58;5.38;;;2.25;;
22713;SDS011;11524;50.846;4.326;2023-04-24T02:12:23;3.10;;;2.13;;
22713;SDS011;11524;50.846;4.326;2023-04-24T02:14:49;5.32;;;2.35;;
22713;SDS011;11524;50.846;4.326;2023-04-24T02:17:15;3.15;;;1.98;;
22713;SDS011;11524;50.846;4.326;2023-04-24T02:19:41;3.50;;;2.10;;
22713;SDS011;11524;50.846;4.326;2023-04-24T02:22:06;2.83;;;2.10;;
22713;SDS011;11524;50.846;4.326;2023-04-24T02:24:32;2.78;;;2.08;;
22713;SDS011;11524;50.846;4.326;2023-04-24T02:26:58;3.35;;;2.22;;
22713;SDS011;11524;50.846;4.326;2023-04-24T02:29:23;2.53;;;2.10;;
22713;SDS011;11524;50.846;4.326;2023-04-24T02:31:49;3.55;;;2.15;;
22713;SDS011;11524;50.846;4.326;2023-04-24T02:34:15;3.28;;;2.20;;
22713;SDS011;11524;50.846;4.326;2023-04-24T02:36:41;4.07;;;2.55;;
22713;SDS011;11524;50.846;4.326;2023-04-24T02:39:07;2.63;;;2.00;;
22713;SDS011;11524;50.846;4.326;2023-04-24T02:41:33;3.03;;;2.10;;
22713;SDS011;11524;50.846;4.326;2023-04-24T02:43:58;3.83;;;2.53;;
22713;SDS011;11524;50.846;4.326;2023-04-24T02:46:24;3.15;;;2.13;;
22713;SDS011;11524;50.846;4.326;2023-04-24T02:48:50;4.43;;;2.38;;
22713;SDS011;11524;50.846;4.326;2023-04-24T02:51:16;3.53;;;2.40;;
22713;SDS011;11524;50.846;4.326;2023-04-24T02:53:41;3.15;;;1.90;;
22713;SDS011;11524;50.846;4.326;2023-04-24T02:56:07;3.17;;;2.10;;
22713;SDS011;11524;50.846;4.326;2023-04-24T02:58:33;3.90;;;2.53;;
22713;SDS011;11524;50.846;4.326;2023-04-24T03:00:58;4.63;;;2.50;;
22713;SDS011;11524;50.846;4.326;2023-04-24T03:03:25;2.65;;;1.83;;
22713;SDS011;11524;50.846;4.326;2023-04-24T03:05:51;2.80;;;1.95;;
22713;SDS011;11524;50.846;4.326;2023-04-24T03:08:16;4.30;;;2.35;;
22713;SDS011;11524;50.846;4.326;2023-04-24T03:10:42;3.17;;;2.00;;
22713;SDS011;11524;50.846;4.326;2023-04-24T03:13:08;3.08;;;2.20;;
22713;SDS011;11524;50.846;4.326;2023-04-24T03:15:34;4.30;;;2.65;;
22713;SDS011;11524;50.846;4.326;2023-04-24T03:17:59;3.92;;;2.10;;
22713;SDS011;11524;50.846;4.326;2023-04-24T03:20:25;4.63;;;2.65;;
22713;SDS011;11524;50.846;4.326;2023-04-24T03:22:51;4.20;;;1.90;;
22713;SDS011;11524;50.846;4.326;2023-04-24T03:25:17;4.30;;;2.55;;
22713;SDS011;11524;50.846;4.326;2023-04-24T03:27:42;2.47;;;1.80;;
22713;SDS011;11524;50.846;4.326;2023-04-24T03:30:08;2.47;;;1.75;;
22713;SDS011;11524;50.846;4.326;2023-04-24T03:32:34;3.25;;;2.00;;
22713;SDS011;11524;50.846;4.326;2023-04-24T03:35:00;3.00;;;1.88;;
22713;SDS011;11524;50.846;4.326;2023-04-24T03:37:26;2.78;;;1.80;;
22713;SDS011;11524;50.846;4.326;2023-04-24T03:39:52;2.80;;;1.80;;
22713;SDS011;11524;50.846;4.326;2023-04-24T03:42:17;3.00;;;1.67;;
22713;SDS011;11524;50.846;4.326;2023-04-24T03:44:43;3.15;;;1.90;;
22713;SDS011;11524;50.846;4.326;2023-04-24T03:47:09;2.60;;;1.80;;
22713;SDS011;11524;50.846;4.326;2023-04-24T03:49:35;3.35;;;1.92;;
22713;SDS011;11524;50.846;4.326;2023-04-24T03:52:00;1.90;;;1.60;;
22713;SDS011;11524;50.846;4.326;2023-04-24T03:54:26;3.15;;;1.60;;
22713;SDS011;11524;50.846;4.326;2023-04-24T03:56:52;4.57;;;1.55;;
22713;SDS011;11524;50.846;4.326;2023-04-24T03:59:18;2.53;;;1.60;;
22713;SDS011;11524;50.846;4.326;2023-04-24T04:01:44;2.17;;;1.52;;
22713;SDS011;11524;50.846;4.326;2023-04-24T04:04:10;2.33;;;1.50;;
22713;SDS011;11524;50.846;4.326;2023-04-24T04:06:36;3.30;;;1.67;;
22713;SDS011;11524;50.846;4.326;2023-04-24T04:09:02;1.98;;;1.60;;
22713;SDS011;11524;50.846;4.326;2023-04-24T04:11:28;2.00;;;1.60;;
22713;SDS011;11524;50.846;4.326;2023-04-24T04:13:54;1.80;;;1.60;;
22713;SDS011;11524;50.846;4.326;2023-04-24T04:16:21;2.90;;;1.30;;
22713;SDS011;11524;50.846;4.326;2023-04-24T04:18:48;4.05;;;1.60;;
22713;SDS011;11524;50.846;4.326;2023-04-24T04:21:13;2.10;;;1.70;;
22713;SDS011;11524;50.846;4.326;2023-04-24T04:23:39;2.80;;;1.67;;
22713;SDS011;11524;50.846;4.326;2023-04-24T04:26:05;2.17;;;1.42;;
22713;SDS011;11524;50.846;4.326;2023-04-24T04:28:31;2.13;;;1.50;;
22713;SDS011;11524;50.846;4.326;2023-04-24T04:30:57;3.67;;;1.50;;
22713;SDS011;11524;50.846;4.326;2023-04-24T04:33:23;2.80;;;1.50;;
22713;SDS011;11524;50.846;4.326;2023-04-24T04:35:49;2.47;;;1.40;;
22713;SDS011;11524;50.846;4.326;2023-04-24T04:38:17;3.28;;;1.73;;
22713;SDS011;11524;50.846;4.326;2023-04-24T04:40:43;2.00;;;1.30;;
22713;SDS011;11524;50.846;4.326;2023-04-24T04:43:09;2.78;;;1.50;;
22713;SDS011;11524;50.846;4.326;2023-04-24T04:45:36;3.70;;;1.70;;
22713;SDS011;11524;50.846;4.326;2023-04-24T04:48:02;3.03;;;1.75;;
22713;SDS011;11524;50.846;4.326;2023-04-24T04:50:28;2.20;;;1.77;;
22713;SDS011;11524;50.846;4.326;2023-04-24T04:52:54;3.30;;;1.70;;
22713;SDS011;11524;50.846;4.326;2023-04-24T04:55:20;2.08;;;1.45;;
22713;SDS011;11524;50.846;4.326;2023-04-24T04:57:46;2.47;;;1.95;;
22713;SDS011;11524;50.846;4.326;2023-04-24T05:00:12;3.05;;;1.80;;
22713;SDS011;11524;50.846;4.326;2023-04-24T05:02:40;1.83;;;1.60;;
22713;SDS011;11524;50.846;4.326;2023-04-24T05:05:06;4.45;;;1.90;;
22713;SDS011;11524;50.846;4.326;2023-04-24T05:07:32;2.83;;;2.03;;
22713;SDS011;11524;50.846;4.326;2023-04-24T05:09:58;2.38;;;2.00;;
22713;SDS011;11524;50.846;4.326;2023-04-24T05:12:24;3.08;;;2.00;;
22713;SDS011;11524;50.846;4.326;2023-04-24T05:14:49;2.97;;;2.00;;
22713;SDS011;11524;50.846;4.326;2023-04-24T05:17:15;1.70;;;1.40;;
22713;SDS011;11524;50.846;4.326;2023-04-24T05:19:41;3.42;;;1.60;;
22713;SDS011;11524;50.846;4.326;2023-04-24T05:22:07;4.30;;;2.08;;
22713;SDS011;11524;50.846;4.326;2023-04-24T05:24:33;5.40;;;1.88;;
22713;SDS011;11524;50.846;4.326;2023-04-24T05:26:59;1.77;;;1.20;;
22713;SDS011;11524;50.846;4.326;2023-04-24T05:29:25;3.05;;;2.05;;
22713;SDS011;11524;50.846;4.326;2023-04-24T05:31:51;3.25;;;1.70;;
22713;SDS011;11524;50.846;4.326;2023-04-24T05:34:17;4.20;;;2.42;;
22713;SDS011;11524;50.846;4.326;2023-04-24T05:36:43;2.47;;;1.85;;
22713;SDS011;11524;50.846;4.326;2023-04-24T05:39:09;2.65;;;1.88;;
22713;SDS011;11524;50.846;4.326;2023-04-24T05:41:34;2.35;;;1.65;;
22713;SDS011;11524;50.846;4.326;2023-04-24T05:44:00;3.03;;;2.20;;
22713;SDS011;11524;50.846;4.326;2023-04-24T05:46:26;4.90;;;2.05;;
22713;SDS011;11524;50.846;4.326;2023-04-24T05:48:51;4.18;;;2.05;;
22713;SDS011;11524;50.846;4.326;2023-04-24T05:51:17;3.47;;;2.03;;
22713;SDS011;11524;50.846;4.326;2023-04-24T05:53:43;4.68;;;2.03;;
22713;SDS011;11524;50.846;4.326;2023-04-24T05:56:09;7.15;;;2.40;;
22713;SDS011;11524;50.846;4.326;2023-04-24T05:58:34;5.10;;;2.65;;
22713;SDS011;11524;50.846;4.326;2023-04-24T06:01:00;9.63;;;2.40;;
22713;SDS011;11524;50.846;4.326;2023-04-24T06:03:26;6.53;;;2.65;;
22713;SDS011;11524;50.846;4.326;2023-04-24T06:05:52;10.20;;;2.60;;
22713;SDS011;11524;50.846;4.326;2023-04-24T06:08:18;18.63;;;3.42;;
22713;SDS011;11524;50.846;4.326;2023-04-24T06:10:44;8.70;;;2.28;;
22713;SDS011;11524;50.846;4.326;2023-04-24T06:13:10;11.50;;;2.58;;
22713;SDS011;11524;50.846;4.326;2023-04-24T06:15:36;12.68;;;2.72;;
22713;SDS011;11524;50.846;4.326;2023-04-24T06:18:02;9.13;;;2.20;;
22713;SDS011;11524;50.846;4.326;2023-04-24T06:20:28;9.90;;;2.83;;
22713;SDS011;11524;50.846;4.326;2023-04-24T06:22:54;8.25;;;2.55;;
22713;SDS011;11524;50.846;4.326;2023-04-24T06:25:19;17.52;;;3.08;;
22713;SDS011;11524;50.846;4.326;2023-04-24T06:27:45;7.68;;;2.63;;
22713;SDS011;11524;50.846;4.326;2023-04-24T06:30:11;8.02;;;2.72;;
22713;SDS011;11524;50.846;4.326;2023-04-24T06:32:37;5.93;;;2.38;;
22713;SDS011;11524;50.846;4.326;2023-04-24T06:35:03;5.57;;;2.65;;
22713;SDS011;11524;50.846;4.326;2023-04-24T06:37:29;7.88;;;3.00;;
22713;SDS011;11524;50.846;4.326;2023-04-24T06:39:54;6.72;;;2.70;;
22713;SDS011;11524;50.846;4.326;2023-04-24T06:42:20;6.63;;;2.65;;
22713;SDS011;11524;50.846;4.326;2023-04-24T06:44:46;7.63;;;2.67;;
22713;SDS011;11524;50.846;4.326;2023-04-24T06:47:12;7.38;;;3.85;;
22713;SDS011;11524;50.846;4.326;2023-04-24T06:49:41;6.75;;;3.90;;
22713;SDS011;11524;50.846;4.326;2023-04-24T06:52:07;9.63;;;3.42;;
22713;SDS011;11524;50.846;4.326;2023-04-24T06:54:32;4.70;;;3.25;;
22713;SDS011;11524;50.846;4.326;2023-04-24T06:56:59;7.95;;;3.92;;
22713;SDS011;11524;50.846;4.326;2023-04-24T06:59:28;6.85;;;3.95;;
22713;SDS011;11524;50.846;4.326;2023-04-24T07:01:54;9.35;;;3.60;;
22713;SDS011;11524;50.846;4.326;2023-04-24T07:04:20;11.90;;;3.55;;
22713;SDS011;11524;50.846;4.326;2023-04-24T07:06:46;7.30;;;3.65;;
22713;SDS011;11524;50.846;4.326;2023-04-24T07:09:14;7.20;;;3.35;;
22713;SDS011;11524;50.846;4.326;2023-04-24T07:11:41;8.15;;;3.42;;
22713;SDS011;11524;50.846;4.326;2023-04-24T07:14:07;8.90;;;3.17;;
22713;SDS011;11524;50.846;4.326;2023-04-24T07:16:32;4.53;;;2.65;;
22713;SDS011;11524;50.846;4.326;2023-04-24T07:18:58;7.55;;;4.13;;
22713;SDS011;11524;50.846;4.326;2023-04-24T07:21:24;6.20;;;3.17;;
22713;SDS011;11524;50.846;4.326;2023-04-24T07:23:50;6.28;;;3.30;;
22713;SDS011;11524;50.846;4.326;2023-04-24T07:26:16;7.25;;;3.97;;
22713;SDS011;11524;50.846;4.326;2023-04-24T07:28:42;5.70;;;3.33;;
22713;SDS011;11524;50.846;4.326;2023-04-24T07:31:08;5.03;;;3.20;;
22713;SDS011;11524;50.846;4.326;2023-04-24T07:33:33;5.35;;;3.03;;
22713;SDS011;11524;50.846;4.326;2023-04-24T07:36:01;6.18;;;3.70;;
22713;SDS011;11524;50.846;4.326;2023-04-24T07:38:29;7.55;;;3.25;;
22713;SDS011;11524;50.846;4.326;2023-04-24T07:40:54;4.85;;;3.63;;
22713;SDS011;11524;50.846;4.326;2023-04-24T07:43:20;8.82;;;3.75;;
22713;SDS011;11524;50.846;4.326;2023-04-24T07:45:47;6.07;;;3.65;;
22713;SDS011;11524;50.846;4.326;2023-04-24T07:48:12;7.75;;;3.22;;
22713;SDS011;11524;50.846;4.326;2023-04-24T07:50:41;7.05;;;3.60;;
22713;SDS011;11524;50.846;4.326;2023-04-24T07:53:07;6.28;;;3.47;;
22713;SDS011;11524;50.846;4.326;2023-04-24T07:55:32;8.13;;;3.75;;
22713;SDS011;11524;50.846;4.326;2023-04-24T07:57:58;5.97;;;3.40;;
22713;SDS011;11524;50.846;4.326;2023-04-24T08:00:24;8.02;;;4.35;;
22713;SDS011;11524;50.846;4.326;2023-04-24T08:02:50;6.57;;;3.60;;
22713;SDS011;11524;50.846;4.326;2023-04-24T08:05:15;6.15;;;3.92;;
22713;SDS011;11524;50.846;4.326;2023-04-24T08:07:41;7.85;;;3.85;;
22713;SDS011;11524;50.846;4.326;2023-04-24T08:10:11;5.60;;;3.20;;
22713;SDS011;11524;50.846;4.326;2023-04-24T08:12:37;5.57;;;3.03;;
22713;SDS011;11524;50.846;4.326;2023-04-24T08:15:03;5.00;;;3.17;;
22713;SDS011;11524;50.846;4.326;2023-04-24T08:17:29;5.00;;;3.10;;
22713;SDS011;11524;50.846;4.326;2023-04-24T08:19:55;7.15;;;3.33;;
22713;SDS011;11524;50.846;4.326;2023-04-24T08:22:26;6.75;;;3.53;;
22713;SDS011;11524;50.846;4.326;2023-04-24T08:24:52;7.97;;;3.60;;
22713;SDS011;11524;50.846;4.326;2023-04-24T08:27:18;8.02;;;4.25;;
22713;SDS011;11524;50.846;4.326;2023-04-24T08:29:44;7.47;;;2.92;;
22713;SDS011;11524;50.846;4.326;2023-04-24T08:32:10;5.97;;;3.10;;
22713;SDS011;11524;50.846;4.326;2023-04-24T08:34:35;6.57;;;2.95;;
22713;SDS011;11524;50.846;4.326;2023-04-24T08:37:02;6.60;;;3.38;;
22713;SDS011;11524;50.846;4.326;2023-04-24T08:39:27;6.68;;;3.05;;
22713;SDS011;11524;50.846;4.326;2023-04-24T08:41:54;7.25;;;3.47;;
22713;SDS011;11524;50.846;4.326;2023-04-24T08:44:21;5.25;;;2.90;;
22713;SDS011;11524;50.846;4.326;2023-04-24T08:46:50;3.55;;;2.42;;
22713;SDS011;11524;50.846;4.326;2023-04-24T08:49:16;5.78;;;2.95;;
22713;SDS011;11524;50.846;4.326;2023-04-24T08:51:43;6.07;;;2.65;;
22713;SDS011;11524;50.846;4.326;2023-04-24T08:54:11;4.15;;;2.85;;
22713;SDS011;11524;50.846;4.326;2023-04-24T08:56:37;5.15;;;3.00;;
22713;SDS011;11524;50.846;4.326;2023-04-24T08:59:05;5.38;;;2.42;;
22713;SDS011;11524;50.846;4.326;2023-04-24T09:01:32;5.68;;;2.55;;
22713;SDS011;11524;50.846;4.326;2023-04-24T09:04:03;4.65;;;2.70;;
22713;SDS011;11524;50.846;4.326;2023-04-24T09:06:30;4.55;;;2.65;;
22713;SDS011;11524;50.846;4.326;2023-04-24T09:08:57;4.95;;;2.72;;
22713;SDS011;11524;50.846;4.326;2023-04-24T09:11:25;4.30;;;2.50;;
22713;SDS011;11524;50.846;4.326;2023-04-24T09:13:53;5.47;;;2.78;;
22713;SDS011;11524;50.846;4.326;2023-04-24T09:16:20;4.18;;;2.40;;
22713;SDS011;11524;50.846;4.326;2023-04-24T09:18:45;5.72;;;2.70;;
22713;SDS011;11524;50.846;4.326;2023-04-24T09:21:11;4.53;;;2.30;;
22713;SDS011;11524;50.846;4.326;2023-04-24T09:23:37;4.78;;;2.55;;
22713;SDS011;11524;50.846;4.326;2023-04-24T09:26:04;4.70;;;2.67;;
22713;SDS011;11524;50.846;4.326;2023-04-24T09:28:35;4.03;;;2.60;;
22713;SDS011;11524;50.846;4.326;2023-04-24T09:31:15;5.85;;;3.00;;
22713;SDS011;11524;50.846;4.326;2023-04-24T09:34:00;4.13;;;2.72;;
22713;SDS011;11524;50.846;4.326;2023-04-24T09:36:29;5.07;;;2.55;;
22713;SDS011;11524;50.846;4.326;2023-04-24T09:39:00;3.58;;;2.28;;
22713;SDS011;11524;50.846;4.326;2023-04-24T09:41:27;4.88;;;2.20;;
22713;SDS011;11524;50.846;4.326;2023-04-24T09:43:54;6.18;;;2.60;;
22713;SDS011;11524;50.846;4.326;2023-04-24T09:46:20;3.50;;;2.25;;
22713;SDS011;11524;50.846;4.326;2023-04-24T09:48:48;5.07;;;2.53;;
22713;SDS011;11524;50.846;4.326;2023-04-24T09:51:14;5.22;;;2.50;;
22713;SDS011;11524;50.846;4.326;2023-04-24T09:53:44;4.93;;;2.33;;
22713;SDS011;11524;50.846;4.326;2023-04-24T09:56:11;3.97;;;2.50;;
22713;SDS011;11524;50.846;4.326;2023-04-24T09:58:40;3.85;;;2.40;;
22713;SDS011;11524;50.846;4.326;2023-04-24T10:01:05;5.00;;;2.92;;
22713;SDS011;11524;50.846;4.326;2023-04-24T10:03:31;3.85;;;2.25;;
22713;SDS011;11524;50.846;4.326;2023-04-24T10:05:59;3.53;;;2.30;;
22713;SDS011;11524;50.846;4.326;2023-04-24T10:08:25;5.32;;;2.70;;
22713;SDS011;11524;50.846;4.326;2023-04-24T10:10:57;5.22;;;2.67;;
22713;SDS011;11524;50.846;4.326;2023-04-24T10:13:24;5.40;;;2.50;;
22713;SDS011;11524;50.846;4.326;2023-04-24T10:15:50;3.47;;;2.35;;
22713;SDS011;11524;50.846;4.326;2023-04-24T10:18:16;5.38;;;2.67;;
22713;SDS011;11524;50.846;4.326;2023-04-24T10:20:42;5.47;;;2.47;;
22713;SDS011;11524;50.846;4.326;2023-04-24T10:23:08;5.25;;;2.42;;
22713;SDS011;11524;50.846;4.326;2023-04-24T10:25:35;5.53;;;2.45;;
22713;SDS011;11524;50.846;4.326;2023-04-24T10:28:02;6.53;;;2.50;;
22713;SDS011;11524;50.846;4.326;2023-04-24T10:30:29;5.95;;;2.83;;
22713;SDS011;11524;50.846;4.326;2023-04-24T10:32:59;4.35;;;2.70;;
22713;SDS011;11524;50.846;4.326;2023-04-24T10:35:26;4.18;;;2.53;;
22713;SDS011;11524;50.846;4.326;2023-04-24T10:37:59;5.43;;;2.40;;
22713;SDS011;11524;50.846;4.326;2023-04-24T10:40:49;4.97;;;2.50;;
22713;SDS011;11524;50.846;4.326;2023-04-24T10:43:16;6.55;;;2.60;;
22713;SDS011;11524;50.846;4.326;2023-04-24T10:45:42;5.97;;;2.88;;
22713;SDS011;11524;50.846;4.326;2023-04-24T10:48:29;4.50;;;2.65;;
22713;SDS011;11524;50.846;4.326;2023-04-24T10:50:55;6.13;;;2.85;;
22713;SDS011;11524;50.846;4.326;2023-04-24T10:53:22;4.75;;;2.90;;
22713;SDS011;11524;50.846;4.326;2023-04-24T10:56:07;4.63;;;2.58;;
22713;SDS011;11524;50.846;4.326;2023-04-24T10:58:38;4.78;;;2.58;;
22713;SDS011;11524;50.846;4.326;2023-04-24T11:01:05;3.83;;;2.70;;
22713;SDS011;11524;50.846;4.326;2023-04-24T11:03:32;5.68;;;3.03;;
22713;SDS011;11524;50.846;4.326;2023-04-24T11:08:53;5.50;;;2.75;;
22713;SDS011;11524;50.846;4.326;2023-04-24T11:11:23;4.25;;;2.67;;
22713;SDS011;11524;50.846;4.326;2023-04-24T11:16:20;3.72;;;2.58;;
22713;SDS011;11524;50.846;4.326;2023-04-24T11:19:01;5.47;;;2.35;;
22713;SDS011;11524;50.846;4.326;2023-04-24T11:21:30;5.25;;;2.35;;
22713;SDS011;11524;50.846;4.326;2023-04-24T11:29:48;4.15;;;2.35;;
22713;SDS011;11524;50.846;4.326;2023-04-24T11:35:06;2.92;;;2.20;;
22713;SDS011;11524;50.846;4.326;2023-04-24T11:37:39;5.15;;;2.40;;
22713;SDS011;11524;50.846;4.326;2023-04-24T11:40:14;4.03;;;2.25;;
22713;SDS011;11524;50.846;4.326;2023-04-24T11:42:44;5.30;;;2.42;;
22713;SDS011;11524;50.846;4.326;2023-04-24T11:45:14;4.97;;;2.30;;
22713;SDS011;11524;50.846;4.326;2023-04-24T11:47:51;3.30;;;2.10;;
22713;SDS011;11524;50.846;4.326;2023-04-24T11:50:18;3.97;;;2.30;;
22713;SDS011;11524;50.846;4.326;2023-04-24T11:52:45;2.67;;;1.80;;
22713;SDS011;11524;50.846;4.326;2023-04-24T11:57:44;4.22;;;2.40;;
22713;SDS011;11524;50.846;4.326;2023-04-24T12:00:15;4.25;;;2.50;;
22713;SDS011;11524;50.846;4.326;2023-04-24T12:02:48;4.20;;;2.58;;
22713;SDS011;11524;50.846;4.326;2023-04-24T12:05:21;2.67;;;2.13;;
22713;SDS011;11524;50.846;4.326;2023-04-24T12:10:14;5.95;;;2.70;;
22713;SDS011;11524;50.846;4.326;2023-04-24T12:12:44;2.85;;;2.22;;
22713;SDS011;11524;50.846;4.326;2023-04-24T12:15:11;4.72;;;2.55;;
22713;SDS011;11524;50.846;4.326;2023-04-24T12:17:40;5.05;;;2.42;;
22713;SDS011;11524;50.846;4.326;2023-04-24T12:20:07;3.13;;;2.25;;
22713;SDS011;11524;50.846;4.326;2023-04-24T12:22:46;3.80;;;2.40;;
22713;SDS011;11524;50.846;4.326;2023-04-24T12:25:15;7.57;;;2.92;;
22713;SDS011;11524;50.846;4.326;2023-04-24T12:27:46;7.57;;;3.00;;
22713;SDS011;11524;50.846;4.326;2023-04-24T12:30:17;4.70;;;2.42;;
22713;SDS011;11524;50.846;4.326;2023-04-24T12:32:45;7.05;;;2.10;;
22713;SDS011;11524;50.846;4.326;2023-04-24T12:35:12;4.00;;;2.75;;
22713;SDS011;11524;50.846;4.326;2023-04-24T12:37:41;5.40;;;2.38;;
22713;SDS011;11524;50.846;4.326;2023-04-24T12:40:11;4.00;;;2.75;;
22713;SDS011;11524;50.846;4.326;2023-04-24T12:45:14;4.10;;;2.55;;
22713;SDS011;11524;50.846;4.326;2023-04-24T12:47:41;5.30;;;2.63;;
22713;SDS011;11524;50.846;4.326;2023-04-24T12:50:12;4.38;;;2.38;;
22713;SDS011;11524;50.846;4.326;2023-04-24T12:52:39;3.17;;;2.35;;
22713;SDS011;11524;50.846;4.326;2023-04-24T12:55:05;5.18;;;2.55;;
22713;SDS011;11524;50.846;4.326;2023-04-24T12:57:35;5.57;;;2.22;;
22713;SDS011;11524;50.846;4.326;2023-04-24T13:00:02;4.50;;;2.53;;
22713;SDS011;11524;50.846;4.326;2023-04-24T13:02:30;3.75;;;2.10;;
22713;SDS011;11524;50.846;4.326;2023-04-24T13:04:56;2.85;;;2.22;;
22713;SDS011;11524;50.846;4.326;2023-04-24T13:07:26;5.35;;;2.38;;
22713;SDS011;11524;50.846;4.326;2023-04-24T13:09:55;4.50;;;2.47;;
22713;SDS011;11524;50.846;4.326;2023-04-24T13:12:22;4.03;;;2.40;;
22713;SDS011;11524;50.846;4.326;2023-04-24T13:14:51;3.80;;;2.45;;
22713;SDS011;11524;50.846;4.326;2023-04-24T13:17:17;3.95;;;2.20;;
22713;SDS011;11524;50.846;4.326;2023-04-24T13:19:43;4.57;;;2.30;;
22713;SDS011;11524;50.846;4.326;2023-04-24T13:22:10;5.50;;;2.78;;
22713;SDS011;11524;50.846;4.326;2023-04-24T13:24:37;5.35;;;2.50;;
22713;SDS011;11524;50.846;4.326;2023-04-24T13:27:04;5.68;;;2.70;;
22713;SDS011;11524;50.846;4.326;2023-04-24T13:29:30;10.90;;;3.15;;
22713;SDS011;11524;50.846;4.326;2023-04-24T13:31:56;8.15;;;3.35;;
22713;SDS011;11524;50.846;4.326;2023-04-24T13:34:25;8.95;;;3.17;;
22713;SDS011;11524;50.846;4.326;2023-04-24T13:36:54;7.40;;;3.00;;
22713;SDS011;11524;50.846;4.326;2023-04-24T13:39:22;7.45;;;2.72;;
22713;SDS011;11524;50.846;4.326;2023-04-24T13:41:48;8.85;;;3.45;;
22713;SDS011;11524;50.846;4.326;2023-04-24T13:44:14;7.63;;;3.35;;
22713;SDS011;11524;50.846;4.326;2023-04-24T13:46:41;11.52;;;3.35;;
22713;SDS011;11524;50.846;4.326;2023-04-24T13:49:09;6.32;;;3.50;;
22713;SDS011;11524;50.846;4.326;2023-04-24T13:51:35;9.63;;;3.58;;
22713;SDS011;11524;50.846;4.326;2023-04-24T13:54:01;5.95;;;2.85;;
22713;SDS011;11524;50.846;4.326;2023-04-24T13:56:26;9.73;;;3.35;;
22713;SDS011;11524;50.846;4.326;2023-04-24T13:58:52;9.05;;;3.40;;
22713;SDS011;11524;50.846;4.326;2023-04-24T14:01:19;7.40;;;3.38;;
22713;SDS011;11524;50.846;4.326;2023-04-24T14:03:49;6.97;;;3.45;;
22713;SDS011;11524;50.846;4.326;2023-04-24T14:06:15;8.90;;;3.50;;
22713;SDS011;11524;50.846;4.326;2023-04-24T14:08:40;8.05;;;3.17;;
22713;SDS011;11524;50.846;4.326;2023-04-24T14:11:06;7.28;;;3.10;;
22713;SDS011;11524;50.846;4.326;2023-04-24T14:13:32;5.45;;;2.70;;
22713;SDS011;11524;50.846;4.326;2023-04-24T14:15:58;6.72;;;3.00;;
22713;SDS011;11524;50.846;4.326;2023-04-24T14:18:23;9.18;;;3.20;;
22713;SDS011;11524;50.846;4.326;2023-04-24T14:20:49;11.27;;;3.22;;
22713;SDS011;11524;50.846;4.326;2023-04-24T14:23:15;5.93;;;2.90;;
22713;SDS011;11524;50.846;4.326;2023-04-24T14:25:41;8.00;;;2.97;;
22713;SDS011;11524;50.846;4.326;2023-04-24T14:28:06;5.57;;;2.70;;
22713;SDS011;11524;50.846;4.326;2023-04-24T14:30:32;7.97;;;2.78;;
22713;SDS011;11524;50.846;4.326;2023-04-24T14:32:58;6.50;;;2.88;;
22713;SDS011;11524;50.846;4.326;2023-04-24T14:35:23;7.03;;;3.10;;
22713;SDS011;11524;50.846;4.326;2023-04-24T14:37:49;6.78;;;2.95;;
22713;SDS011;11524;50.846;4.326;2023-04-24T14:40:16;7.07;;;2.90;;
22713;SDS011;11524;50.846;4.326;2023-04-24T14:42:41;4.68;;;2.15;;
22713;SDS011;11524;50.846;4.326;2023-04-24T14:45:07;6.55;;;2.72;;
22713;SDS011;11524;50.846;4.326;2023-04-24T14:47:33;8.80;;;2.10;;
22713;SDS011;11524;50.846;4.326;2023-04-24T14:49:59;5.72;;;2.33;;
22713;SDS011;11524;50.846;4.326;2023-04-24T14:52:24;5.18;;;2.35;;
22713;SDS011;11524;50.846;4.326;2023-04-24T14:54:50;4.32;;;2.10;;
22713;SDS011;11524;50.846;4.326;2023-04-24T14:57:15;6.53;;;2.15;;
22713;SDS011;11524;50.846;4.326;2023-04-24T14:59:41;6.80;;;2.05;;
22713;SDS011;11524;50.846;4.326;2023-04-24T15:02:07;5.80;;;2.35;;
22713;SDS011;11524;50.846;4.326;2023-04-24T15:04:33;3.25;;;1.92;;
22713;SDS011;11524;50.846;4.326;2023-04-24T15:06:58;4.32;;;2.03;;